sensor_id;sensor_type;location;lat;lon;timestamp;P1;durP1;ratioP1;P2;durP2;ratioP2
85839;SDS011;76322;54.686;9.332;2024-03-08T17:24:45;23.77;;;14.43;;
85839;SDS011;76322;54.686;9.332;2024-03-08T17:25:47;21.38;;;12.68;;
85839;SDS011;76322;54.686;9.332;2024-03-08T17:26:49;23.48;;;13.18;;
85839;SDS011;76322;54.686;9.332;2024-03-08T17:27:55;19.30;;;11.02;;
85839;SDS011;76322;54.686;9.332;2024-03-08T17:28:57;23.08;;;13.48;;
85839;SDS011;76322;54.686;9.332;2024-03-08T17:29:59;21.45;;;12.52;;
85839;SDS011;76322;54.686;9.332;2024-03-08T17:31:04;21.42;;;11.75;;
85839;SDS011;76322;54.686;9.332;2024-03-08T17:32:08;20.80;;;11.80;;
85839;SDS011;76322;54.686;9.332;2024-03-08T17:33:10;22.67;;;12.63;;
85839;SDS011;76322;54.686;9.332;2024-03-08T17:34:12;20.83;;;12.85;;
85839;SDS011;76322;54.686;9.332;2024-03-08T17:35:20;20.20;;;12.18;;
85839;SDS011;76322;54.686;9.332;2024-03-08T17:36:22;22.25;;;12.35;;
85839;SDS011;76322;54.686;9.332;2024-03-08T17:37:24;20.88;;;12.20;;
85839;SDS011;76322;54.686;9.332;2024-03-08T17:38:25;23.08;;;13.63;;
85839;SDS011;76322;54.686;9.332;2024-03-08T17:39:26;21.92;;;12.15;;
85839;SDS011;76322;54.686;9.332;2024-03-08T17:40:31;22.58;;;12.65;;
85839;SDS011;76322;54.686;9.332;2024-03-08T17:41:32;21.58;;;12.85;;
85839;SDS011;76322;54.686;9.332;2024-03-08T17:42:34;19.88;;;11.77;;
85839;SDS011;76322;54.686;9.332;2024-03-08T17:43:35;22.67;;;12.15;;
85839;SDS011;76322;54.686;9.332;2024-03-08T17:44:37;22.13;;;12.80;;
85839;SDS011;76322;54.686;9.332;2024-03-08T17:45:40;21.00;;;11.93;;
85839;SDS011;76322;54.686;9.332;2024-03-08T17:46:46;21.98;;;12.52;;
85839;SDS011;76322;54.686;9.332;2024-03-08T17:47:49;22.95;;;13.13;;
85839;SDS011;76322;54.686;9.332;2024-03-08T17:48:54;19.75;;;11.85;;
85839;SDS011;76322;54.686;9.332;2024-03-08T17:49:55;24.02;;;13.60;;
85839;SDS011;76322;54.686;9.332;2024-03-08T17:50:57;21.90;;;12.25;;
85839;SDS011;76322;54.686;9.332;2024-03-08T17:51:59;21.15;;;12.75;;
85839;SDS011;76322;54.686;9.332;2024-03-08T17:53:05;24.00;;;13.38;;
85839;SDS011;76322;54.686;9.332;2024-03-08T17:54:08;21.80;;;11.93;;
85839;SDS011;76322;54.686;9.332;2024-03-08T17:55:15;23.65;;;13.18;;
85839;SDS011;76322;54.686;9.332;2024-03-08T17:56:17;21.98;;;12.43;;
85839;SDS011;76322;54.686;9.332;2024-03-08T17:57:18;21.58;;;12.40;;
85839;SDS011;76322;54.686;9.332;2024-03-08T17:58:20;22.92;;;13.07;;
85839;SDS011;76322;54.686;9.332;2024-03-08T17:59:22;22.42;;;12.20;;
85839;SDS011;76322;54.686;9.332;2024-03-08T18:00:23;23.08;;;12.32;;
85839;SDS011;76322;54.686;9.332;2024-03-08T18:01:36;22.48;;;11.30;;
85839;SDS011;76322;54.686;9.332;2024-03-08T18:02:38;21.27;;;12.38;;
85839;SDS011;76322;54.686;9.332;2024-03-08T18:03:40;22.10;;;12.45;;
85839;SDS011;76322;54.686;9.332;2024-03-08T18:04:41;22.48;;;12.48;;
85839;SDS011;76322;54.686;9.332;2024-03-08T18:05:43;20.23;;;12.63;;
85839;SDS011;76322;54.686;9.332;2024-03-08T18:06:47;23.92;;;12.85;;
85839;SDS011;76322;54.686;9.332;2024-03-08T18:07:51;24.27;;;13.05;;
85839;SDS011;76322;54.686;9.332;2024-03-08T18:08:53;20.92;;;11.88;;
85839;SDS011;76322;54.686;9.332;2024-03-08T18:09:55;21.90;;;12.23;;
85839;SDS011;76322;54.686;9.332;2024-03-08T18:10:57;23.42;;;13.20;;
85839;SDS011;76322;54.686;9.332;2024-03-08T18:11:59;20.58;;;12.05;;
85839;SDS011;76322;54.686;9.332;2024-03-08T18:13:02;22.40;;;12.10;;
85839;SDS011;76322;54.686;9.332;2024-03-08T18:14:10;21.35;;;12.45;;
85839;SDS011;76322;54.686;9.332;2024-03-08T18:15:15;21.33;;;12.15;;
85839;SDS011;76322;54.686;9.332;2024-03-08T18:16:26;21.67;;;12.35;;
85839;SDS011;76322;54.686;9.332;2024-03-08T18:17:27;22.00;;;12.50;;
85839;SDS011;76322;54.686;9.332;2024-03-08T18:18:29;23.20;;;12.40;;
85839;SDS011;76322;54.686;9.332;2024-03-08T18:19:30;21.75;;;12.35;;
85839;SDS011;76322;54.686;9.332;2024-03-08T18:20:33;22.33;;;12.88;;
85839;SDS011;76322;54.686;9.332;2024-03-08T18:21:35;22.30;;;12.65;;
85839;SDS011;76322;54.686;9.332;2024-03-08T18:22:37;26.10;;;13.93;;
85839;SDS011;76322;54.686;9.332;2024-03-08T18:23:38;23.67;;;12.50;;
85839;SDS011;76322;54.686;9.332;2024-03-08T18:24:41;22.77;;;11.57;;
85839;SDS011;76322;54.686;9.332;2024-03-08T18:25:43;24.02;;;12.63;;
85839;SDS011;76322;54.686;9.332;2024-03-08T18:26:48;21.98;;;12.82;;
85839;SDS011;76322;54.686;9.332;2024-03-08T18:27:49;24.55;;;13.07;;
85839;SDS011;76322;54.686;9.332;2024-03-08T18:28:51;20.02;;;11.65;;
85839;SDS011;76322;54.686;9.332;2024-03-08T18:29:53;25.55;;;13.65;;
85839;SDS011;76322;54.686;9.332;2024-03-08T18:30:55;23.92;;;12.98;;
85839;SDS011;76322;54.686;9.332;2024-03-08T18:31:57;21.92;;;12.52;;
85839;SDS011;76322;54.686;9.332;2024-03-08T18:32:58;24.30;;;13.95;;
85839;SDS011;76322;54.686;9.332;2024-03-08T18:34:00;20.63;;;11.75;;
85839;SDS011;76322;54.686;9.332;2024-03-08T18:35:01;21.98;;;12.25;;
85839;SDS011;76322;54.686;9.332;2024-03-08T18:36:03;26.00;;;12.73;;
85839;SDS011;76322;54.686;9.332;2024-03-08T18:37:07;22.65;;;12.68;;
85839;SDS011;76322;54.686;9.332;2024-03-08T18:38:13;22.15;;;12.43;;
85839;SDS011;76322;54.686;9.332;2024-03-08T18:39:15;21.73;;;12.63;;
85839;SDS011;76322;54.686;9.332;2024-03-08T18:40:19;22.55;;;12.85;;
85839;SDS011;76322;54.686;9.332;2024-03-08T18:41:27;22.80;;;11.98;;
85839;SDS011;76322;54.686;9.332;2024-03-08T18:42:28;20.95;;;12.75;;
85839;SDS011;76322;54.686;9.332;2024-03-08T18:43:31;19.77;;;11.80;;
85839;SDS011;76322;54.686;9.332;2024-03-08T18:44:35;19.83;;;11.35;;
85839;SDS011;76322;54.686;9.332;2024-03-08T18:45:37;19.08;;;11.90;;
85839;SDS011;76322;54.686;9.332;2024-03-08T18:46:39;22.50;;;12.43;;
85839;SDS011;76322;54.686;9.332;2024-03-08T18:47:43;22.38;;;13.35;;
85839;SDS011;76322;54.686;9.332;2024-03-08T18:48:49;23.65;;;12.45;;
85839;SDS011;76322;54.686;9.332;2024-03-08T18:49:51;22.73;;;12.57;;
85839;SDS011;76322;54.686;9.332;2024-03-08T18:50:52;25.38;;;13.23;;
85839;SDS011;76322;54.686;9.332;2024-03-08T18:51:55;21.48;;;12.07;;
85839;SDS011;76322;54.686;9.332;2024-03-08T18:52:57;21.77;;;12.43;;
85839;SDS011;76322;54.686;9.332;2024-03-08T18:53:59;27.13;;;13.65;;
85839;SDS011;76322;54.686;9.332;2024-03-08T18:55:01;22.90;;;12.80;;
85839;SDS011;76322;54.686;9.332;2024-03-08T18:56:03;23.35;;;13.07;;
85839;SDS011;76322;54.686;9.332;2024-03-08T18:57:06;22.15;;;11.93;;
85839;SDS011;76322;54.686;9.332;2024-03-08T18:58:09;24.33;;;12.25;;
85839;SDS011;76322;54.686;9.332;2024-03-08T18:59:10;19.13;;;11.38;;
85839;SDS011;76322;54.686;9.332;2024-03-08T19:00:15;23.23;;;12.70;;
85839;SDS011;76322;54.686;9.332;2024-03-08T19:01:24;25.23;;;12.90;;
85839;SDS011;76322;54.686;9.332;2024-03-08T19:02:29;23.67;;;11.48;;
85839;SDS011;76322;54.686;9.332;2024-03-08T19:03:30;23.60;;;12.68;;
85839;SDS011;76322;54.686;9.332;2024-03-08T19:04:33;22.63;;;12.05;;
85839;SDS011;76322;54.686;9.332;2024-03-08T19:05:36;23.73;;;12.73;;
85839;SDS011;76322;54.686;9.332;2024-03-08T19:06:41;24.02;;;12.63;;
85839;SDS011;76322;54.686;9.332;2024-03-08T19:07:43;22.73;;;12.70;;
85839;SDS011;76322;54.686;9.332;2024-03-08T19:08:46;25.50;;;13.10;;
85839;SDS011;76322;54.686;9.332;2024-03-08T19:09:49;25.20;;;13.68;;
85839;SDS011;76322;54.686;9.332;2024-03-08T19:10:51;23.50;;;12.38;;
85839;SDS011;76322;54.686;9.332;2024-03-08T19:11:55;25.13;;;14.32;;
85839;SDS011;76322;54.686;9.332;2024-03-08T19:12:57;24.30;;;13.13;;
85839;SDS011;76322;54.686;9.332;2024-03-08T19:14:02;26.08;;;13.63;;
85839;SDS011;76322;54.686;9.332;2024-03-08T19:15:04;24.75;;;13.85;;
85839;SDS011;76322;54.686;9.332;2024-03-08T19:16:09;26.15;;;12.65;;
85839;SDS011;76322;54.686;9.332;2024-03-08T19:17:15;25.05;;;13.60;;
85839;SDS011;76322;54.686;9.332;2024-03-08T19:18:16;26.02;;;12.52;;
85839;SDS011;76322;54.686;9.332;2024-03-08T19:19:19;22.10;;;12.80;;
85839;SDS011;76322;54.686;9.332;2024-03-08T19:20:24;28.38;;;13.52;;
85839;SDS011;76322;54.686;9.332;2024-03-08T19:21:27;26.58;;;13.95;;
85839;SDS011;76322;54.686;9.332;2024-03-08T19:22:33;26.35;;;13.70;;
85839;SDS011;76322;54.686;9.332;2024-03-08T19:23:34;24.77;;;13.60;;
85839;SDS011;76322;54.686;9.332;2024-03-08T19:24:36;24.63;;;12.93;;
85839;SDS011;76322;54.686;9.332;2024-03-08T19:25:38;26.35;;;13.80;;
85839;SDS011;76322;54.686;9.332;2024-03-08T19:26:45;28.45;;;13.80;;
85839;SDS011;76322;54.686;9.332;2024-03-08T19:27:50;24.65;;;13.40;;
85839;SDS011;76322;54.686;9.332;2024-03-08T19:28:51;27.85;;;13.63;;
85839;SDS011;76322;54.686;9.332;2024-03-08T19:29:53;29.17;;;14.93;;
85839;SDS011;76322;54.686;9.332;2024-03-08T19:30:55;25.63;;;12.95;;
85839;SDS011;76322;54.686;9.332;2024-03-08T19:31:57;24.95;;;13.63;;
85839;SDS011;76322;54.686;9.332;2024-03-08T19:32:59;22.23;;;13.50;;
85839;SDS011;76322;54.686;9.332;2024-03-08T19:34:02;25.50;;;13.95;;
85839;SDS011;76322;54.686;9.332;2024-03-08T19:35:04;29.17;;;15.23;;
85839;SDS011;76322;54.686;9.332;2024-03-08T19:36:12;25.10;;;13.85;;
85839;SDS011;76322;54.686;9.332;2024-03-08T19:37:19;27.15;;;13.48;;
85839;SDS011;76322;54.686;9.332;2024-03-08T19:38:21;26.75;;;14.07;;
85839;SDS011;76322;54.686;9.332;2024-03-08T19:39:22;28.40;;;13.70;;
85839;SDS011;76322;54.686;9.332;2024-03-08T19:40:24;26.77;;;14.40;;
85839;SDS011;76322;54.686;9.332;2024-03-08T19:41:33;27.55;;;14.32;;
85839;SDS011;76322;54.686;9.332;2024-03-08T19:42:34;27.33;;;14.65;;
85839;SDS011;76322;54.686;9.332;2024-03-08T19:43:36;26.63;;;14.18;;
85839;SDS011;76322;54.686;9.332;2024-03-08T19:44:38;28.77;;;15.98;;
85839;SDS011;76322;54.686;9.332;2024-03-08T19:45:41;28.00;;;14.73;;
85839;SDS011;76322;54.686;9.332;2024-03-08T19:46:44;28.38;;;14.50;;
85839;SDS011;76322;54.686;9.332;2024-03-08T19:47:47;27.10;;;14.88;;
85839;SDS011;76322;54.686;9.332;2024-03-08T19:48:49;26.40;;;13.40;;
85839;SDS011;76322;54.686;9.332;2024-03-08T19:49:51;24.17;;;13.77;;
85839;SDS011;76322;54.686;9.332;2024-03-08T19:50:52;26.73;;;15.18;;
85839;SDS011;76322;54.686;9.332;2024-03-08T19:51:54;29.45;;;15.13;;
85839;SDS011;76322;54.686;9.332;2024-03-08T19:52:56;28.52;;;13.27;;
85839;SDS011;76322;54.686;9.332;2024-03-08T19:54:05;26.48;;;14.00;;
85839;SDS011;76322;54.686;9.332;2024-03-08T19:55:08;24.98;;;15.05;;
85839;SDS011;76322;54.686;9.332;2024-03-08T19:56:11;28.20;;;13.98;;
85839;SDS011;76322;54.686;9.332;2024-03-08T19:57:12;25.83;;;15.30;;
85839;SDS011;76322;54.686;9.332;2024-03-08T19:58:17;28.00;;;14.93;;
85839;SDS011;76322;54.686;9.332;2024-03-08T19:59:19;32.85;;;15.77;;
85839;SDS011;76322;54.686;9.332;2024-03-08T20:00:21;29.90;;;15.60;;
85839;SDS011;76322;54.686;9.332;2024-03-08T20:01:26;28.55;;;14.88;;
85839;SDS011;76322;54.686;9.332;2024-03-08T20:02:28;26.77;;;14.15;;
85839;SDS011;76322;54.686;9.332;2024-03-08T20:03:32;26.48;;;13.75;;
85839;SDS011;76322;54.686;9.332;2024-03-08T20:05:36;25.13;;;13.80;;
85839;SDS011;76322;54.686;9.332;2024-03-08T20:06:37;25.63;;;13.88;;
85839;SDS011;76322;54.686;9.332;2024-03-08T20:07:46;28.52;;;14.75;;
85839;SDS011;76322;54.686;9.332;2024-03-08T20:08:53;27.17;;;14.30;;
85839;SDS011;76322;54.686;9.332;2024-03-08T20:09:58;26.90;;;14.52;;
85839;SDS011;76322;54.686;9.332;2024-03-08T20:10:59;28.13;;;14.15;;
85839;SDS011;76322;54.686;9.332;2024-03-08T20:12:05;24.58;;;13.30;;
85839;SDS011;76322;54.686;9.332;2024-03-08T20:13:09;24.70;;;13.07;;
85839;SDS011;76322;54.686;9.332;2024-03-08T20:14:11;25.55;;;13.63;;
85839;SDS011;76322;54.686;9.332;2024-03-08T20:15:17;32.97;;;14.60;;
85839;SDS011;76322;54.686;9.332;2024-03-08T20:16:18;27.08;;;14.02;;
85839;SDS011;76322;54.686;9.332;2024-03-08T20:17:20;28.63;;;14.57;;
85839;SDS011;76322;54.686;9.332;2024-03-08T20:18:21;28.52;;;14.18;;
85839;SDS011;76322;54.686;9.332;2024-03-08T20:19:28;27.35;;;14.90;;
85839;SDS011;76322;54.686;9.332;2024-03-08T20:20:30;30.05;;;14.63;;
85839;SDS011;76322;54.686;9.332;2024-03-08T20:21:32;27.83;;;14.00;;
85839;SDS011;76322;54.686;9.332;2024-03-08T20:22:33;26.60;;;13.93;;
85839;SDS011;76322;54.686;9.332;2024-03-08T20:23:35;24.77;;;13.75;;
85839;SDS011;76322;54.686;9.332;2024-03-08T20:24:36;25.52;;;13.95;;
85839;SDS011;76322;54.686;9.332;2024-03-08T20:25:39;26.15;;;14.52;;
85839;SDS011;76322;54.686;9.332;2024-03-08T20:26:47;27.52;;;15.15;;
85839;SDS011;76322;54.686;9.332;2024-03-08T20:27:49;26.88;;;14.05;;
85839;SDS011;76322;54.686;9.332;2024-03-08T20:28:55;28.58;;;14.90;;
85839;SDS011;76322;54.686;9.332;2024-03-08T20:29:58;27.60;;;12.90;;
85839;SDS011;76322;54.686;9.332;2024-03-08T20:31:00;26.70;;;14.65;;
85839;SDS011;76322;54.686;9.332;2024-03-08T20:32:02;30.63;;;14.70;;
85839;SDS011;76322;54.686;9.332;2024-03-08T20:33:04;25.95;;;13.20;;
85839;SDS011;76322;54.686;9.332;2024-03-08T20:34:06;27.40;;;14.32;;
85839;SDS011;76322;54.686;9.332;2024-03-08T20:35:08;27.90;;;13.55;;
85839;SDS011;76322;54.686;9.332;2024-03-08T20:36:11;34.67;;;15.38;;
85839;SDS011;76322;54.686;9.332;2024-03-08T20:37:13;25.20;;;14.25;;
85839;SDS011;76322;54.686;9.332;2024-03-08T20:38:15;28.00;;;14.52;;
85839;SDS011;76322;54.686;9.332;2024-03-08T20:39:22;28.23;;;14.43;;
85839;SDS011;76322;54.686;9.332;2024-03-08T20:40:23;26.25;;;14.55;;
85839;SDS011;76322;54.686;9.332;2024-03-08T20:41:43;27.60;;;14.15;;
85839;SDS011;76322;54.686;9.332;2024-03-08T20:42:45;23.83;;;12.75;;
85839;SDS011;76322;54.686;9.332;2024-03-08T20:43:49;26.38;;;15.05;;
85839;SDS011;76322;54.686;9.332;2024-03-08T20:44:50;27.25;;;13.55;;
85839;SDS011;76322;54.686;9.332;2024-03-08T20:45:52;29.85;;;15.35;;
85839;SDS011;76322;54.686;9.332;2024-03-08T20:46:55;30.15;;;14.55;;
85839;SDS011;76322;54.686;9.332;2024-03-08T20:47:57;24.95;;;14.40;;
85839;SDS011;76322;54.686;9.332;2024-03-08T20:48:58;28.45;;;13.65;;
85839;SDS011;76322;54.686;9.332;2024-03-08T20:50:02;27.38;;;14.35;;
85839;SDS011;76322;54.686;9.332;2024-03-08T20:51:09;25.67;;;13.73;;
85839;SDS011;76322;54.686;9.332;2024-03-08T20:52:12;27.33;;;14.35;;
85839;SDS011;76322;54.686;9.332;2024-03-08T20:53:14;26.08;;;13.82;;
85839;SDS011;76322;54.686;9.332;2024-03-08T20:54:17;27.05;;;14.05;;
85839;SDS011;76322;54.686;9.332;2024-03-08T20:55:18;25.48;;;13.65;;
85839;SDS011;76322;54.686;9.332;2024-03-08T20:56:23;27.10;;;14.68;;
85839;SDS011;76322;54.686;9.332;2024-03-08T20:57:26;26.02;;;13.88;;
85839;SDS011;76322;54.686;9.332;2024-03-08T20:58:27;26.63;;;13.32;;
85839;SDS011;76322;54.686;9.332;2024-03-08T20:59:29;27.38;;;14.05;;
85839;SDS011;76322;54.686;9.332;2024-03-08T21:00:31;26.83;;;14.23;;
85839;SDS011;76322;54.686;9.332;2024-03-08T21:01:36;29.27;;;14.10;;
85839;SDS011;76322;54.686;9.332;2024-03-08T21:02:38;30.35;;;15.77;;
85839;SDS011;76322;54.686;9.332;2024-03-08T21:03:39;29.67;;;13.52;;
85839;SDS011;76322;54.686;9.332;2024-03-08T21:04:41;26.17;;;13.80;;
85839;SDS011;76322;54.686;9.332;2024-03-08T21:05:46;31.52;;;15.05;;
85839;SDS011;76322;54.686;9.332;2024-03-08T21:06:51;28.77;;;14.43;;
85839;SDS011;76322;54.686;9.332;2024-03-08T21:07:52;28.20;;;13.45;;
85839;SDS011;76322;54.686;9.332;2024-03-08T21:08:54;27.38;;;13.75;;
85839;SDS011;76322;54.686;9.332;2024-03-08T21:09:56;29.05;;;15.23;;
85839;SDS011;76322;54.686;9.332;2024-03-08T21:10:58;28.20;;;14.45;;
85839;SDS011;76322;54.686;9.332;2024-03-08T21:12:00;26.38;;;13.88;;
85839;SDS011;76322;54.686;9.332;2024-03-08T21:13:03;27.65;;;14.65;;
85839;SDS011;76322;54.686;9.332;2024-03-08T21:14:06;25.20;;;13.32;;
85839;SDS011;76322;54.686;9.332;2024-03-08T21:15:08;27.52;;;13.30;;
85839;SDS011;76322;54.686;9.332;2024-03-08T21:16:10;25.92;;;14.10;;
85839;SDS011;76322;54.686;9.332;2024-03-08T21:17:12;32.08;;;14.68;;
85839;SDS011;76322;54.686;9.332;2024-03-08T21:18:14;28.23;;;15.15;;
85839;SDS011;76322;54.686;9.332;2024-03-08T21:19:15;26.30;;;14.73;;
85839;SDS011;76322;54.686;9.332;2024-03-08T21:20:17;29.60;;;15.70;;
85839;SDS011;76322;54.686;9.332;2024-03-08T21:21:20;27.38;;;14.75;;
85839;SDS011;76322;54.686;9.332;2024-03-08T21:22:22;28.92;;;14.43;;
85839;SDS011;76322;54.686;9.332;2024-03-08T21:23:23;29.58;;;14.75;;
85839;SDS011;76322;54.686;9.332;2024-03-08T21:25:30;27.83;;;13.77;;
85839;SDS011;76322;54.686;9.332;2024-03-08T21:26:32;31.35;;;15.35;;
85839;SDS011;76322;54.686;9.332;2024-03-08T21:27:33;29.70;;;15.48;;
85839;SDS011;76322;54.686;9.332;2024-03-08T21:28:36;27.92;;;15.05;;
85839;SDS011;76322;54.686;9.332;2024-03-08T21:29:38;33.55;;;16.58;;
85839;SDS011;76322;54.686;9.332;2024-03-08T21:30:40;32.28;;;16.00;;
85839;SDS011;76322;54.686;9.332;2024-03-08T21:31:42;32.33;;;15.50;;
85839;SDS011;76322;54.686;9.332;2024-03-08T21:32:44;29.02;;;14.65;;
85839;SDS011;76322;54.686;9.332;2024-03-08T21:33:45;27.65;;;14.35;;
85839;SDS011;76322;54.686;9.332;2024-03-08T21:34:49;27.48;;;13.35;;
85839;SDS011;76322;54.686;9.332;2024-03-08T21:35:50;28.75;;;14.52;;
85839;SDS011;76322;54.686;9.332;2024-03-08T21:36:52;28.63;;;14.43;;
85839;SDS011;76322;54.686;9.332;2024-03-08T21:37:53;29.58;;;14.70;;
85839;SDS011;76322;54.686;9.332;2024-03-08T21:38:55;26.73;;;14.43;;
85839;SDS011;76322;54.686;9.332;2024-03-08T21:39:57;33.15;;;15.77;;
85839;SDS011;76322;54.686;9.332;2024-03-08T21:40:58;27.83;;;14.90;;
85839;SDS011;76322;54.686;9.332;2024-03-08T21:42:05;29.33;;;14.88;;
85839;SDS011;76322;54.686;9.332;2024-03-08T21:43:06;33.03;;;16.08;;
85839;SDS011;76322;54.686;9.332;2024-03-08T21:44:08;30.27;;;15.52;;
85839;SDS011;76322;54.686;9.332;2024-03-08T21:45:09;31.48;;;14.60;;
85839;SDS011;76322;54.686;9.332;2024-03-08T21:47:16;32.25;;;13.93;;
85839;SDS011;76322;54.686;9.332;2024-03-08T21:48:20;30.85;;;15.32;;
85839;SDS011;76322;54.686;9.332;2024-03-08T21:49:21;31.10;;;14.32;;
85839;SDS011;76322;54.686;9.332;2024-03-08T21:50:23;29.25;;;15.55;;
85839;SDS011;76322;54.686;9.332;2024-03-08T21:51:24;29.40;;;15.48;;
85839;SDS011;76322;54.686;9.332;2024-03-08T21:52:26;32.30;;;14.32;;
85839;SDS011;76322;54.686;9.332;2024-03-08T21:53:28;30.60;;;14.73;;
85839;SDS011;76322;54.686;9.332;2024-03-08T21:54:36;29.58;;;14.57;;
